此METAR来自2022年8月13日 01:00. 最近的
罗盘
风向 的 风向 140° Efogi Airport 17/35
风: 5 kt, 2 beaufort

4 kt

3 kt
改变
0 2.000 4.000 6.000 8.000 10.000
FEW 1.000 ft
SCT 5.000 ft
SCT 9.000 ft
METAR AYPY 121500Z 14005KT 9999 FEW010 SCT050 SCT090 24/23 Q1010

METAR Efogi Airport - EFG/EFG

Efogi Airport是Efogi,巴布亚新几内亚中的小机场。 该机场有一条跑道: 17/35. 该领域的国际民航组织标志是EFG 它的国际航空运输协会代码是EFG.

这份报告是针对2022年8月13日 01:00, 当地时间在傑克遜斯國際機場进行的。

机场观察

风向为140°,速度为5 kt。

可见度为10 km 或者更多。

有几云在1.000 ft的高度, 疏云,零星散落的云朵在5.000 ft的高度 和 疏云,零星散落的云朵在9.000 ft的高度。 没有观察到天花板。

温度和风寒是24 °C。 露点为23 °C,相对湿度为94%。 海平面上的气压为1010 hPa (QNH)。

白天

今天,太阳从05:57升起,在18:05降落。 这适用于Efogi Airport,世界夏令时可能有所不同。 当地时间与世界标准时间之间的时差为+10 小时。 夏令时目前正在进行中。

公司介绍

我们没有关于这个机场的公司信息。

体会

到Vliegles.nl去找飞行课程,跳伞和其他飞行体验。 浏览页面,了解Efogi Airport附近所有可用的活动。 你也可以使用搜索功能来寻找你所在地附近的特定飞行课程、跳伞或其他飞行体验。

跑道

Id 标题 侧风 逆风 侧风 %
17/35 170°-350° 3 kt 4 kt 50 %

逆风成分最大的方向会被突出显示,并用于横风计算。 这并不一定意味着这个方向在使用。

乌云

1.000 ft FEW 几云
5.000 ft SCT 疏云,零星散落的云朵
9.000 ft SCT 疏云,零星散落的云朵

温度 & 天气

温度 24 °C
露点 23 °C
相对湿度 94%
Kp-index 2  

白天

日出
06:22
中午
12:16
日落
18:09

小工具

你想在你的网站上有一个关于Efogi Airport的当前航空天气(METAR)的小部件吗?

</> 显示HTML代码

我们和第三方通过cookies跟踪您在我们网站上的上网行为。如果您继续,我们认为您同意我们的cookie政策。 了解更多